createdAt,value
2022-10-29T00:03:02.027Z,29.4
2022-10-29T00:08:01.668Z,29.2
2022-10-29T00:13:01.639Z,27.6
2022-10-29T00:18:01.629Z,28.2
2022-10-29T00:23:01.650Z,28.3
2022-10-29T00:28:01.640Z,28.5
2022-10-29T00:33:01.624Z,29.4
2022-10-29T00:38:01.623Z,31.2
2022-10-29T00:43:01.730Z,31.5
2022-10-29T00:48:01.753Z,32.3
2022-10-29T00:53:01.331Z,32.6
2022-10-29T00:58:01.805Z,32.9
2022-10-29T01:03:01.987Z,33.2
2022-10-29T01:08:01.625Z,33.5
2022-10-29T01:13:01.595Z,33.4
2022-10-29T01:18:01.625Z,32.0
2022-10-29T01:23:01.703Z,31.4
2022-10-29T01:28:01.481Z,31.1
2022-10-29T01:33:01.758Z,30.9
2022-10-29T01:38:01.612Z,30.7
2022-10-29T01:43:01.639Z,32.0
2022-10-29T01:48:01.583Z,30.0
2022-10-29T01:53:01.717Z,30.4
2022-10-29T01:58:01.876Z,29.4
2022-10-29T02:03:02.439Z,29.0
2022-10-29T02:08:01.619Z,27.2
2022-10-29T02:13:01.607Z,29.6
2022-10-29T02:18:01.628Z,29.2
2022-10-29T02:23:01.607Z,29.3
2022-10-29T02:28:01.904Z,28.6
2022-10-29T02:33:01.623Z,30.3
2022-10-29T02:38:01.625Z,31.2
2022-10-29T02:43:01.655Z,32.0
2022-10-29T02:48:01.610Z,32.5
2022-10-29T02:53:01.627Z,33.3
2022-10-29T02:58:01.641Z,33.3
2022-10-29T03:03:01.963Z,33.0
2022-10-29T03:08:01.625Z,32.2
2022-10-29T03:13:01.618Z,32.1
2022-10-29T03:18:02.721Z,34.6
2022-10-29T03:23:01.743Z,35.4
2022-10-29T03:28:01.624Z,35.6
2022-10-29T03:33:01.620Z,36.4
2022-10-29T03:38:01.633Z,36.7
2022-10-29T03:43:02.077Z,34.0
2022-10-29T03:48:03.682Z,33.2
2022-10-29T03:53:01.907Z,31.4
2022-10-29T03:58:02.004Z,30.4
2022-10-29T04:03:02.849Z,29.7
2022-10-29T04:08:01.610Z,29.6
2022-10-29T04:13:01.652Z,29.3
2022-10-29T04:18:01.614Z,30.1
2022-10-29T04:45:02.735Z,30.0
2022-10-29T04:50:01.668Z,29.2
2022-10-29T04:55:01.198Z,31.5
2022-10-29T05:00:01.835Z,30.6
2022-10-29T05:05:01.252Z,29.8
2022-10-29T05:10:01.749Z,29.4
2022-10-29T05:15:01.948Z,28.6
2022-10-29T05:20:02.082Z,26.7
2022-10-29T05:25:01.308Z,26.8
2022-10-29T05:30:01.813Z,27.4
2022-10-29T05:35:01.224Z,28.3
2022-10-29T05:40:01.190Z,29.0
2022-10-29T05:45:01.743Z,29.8
2022-10-29T05:50:01.209Z,31.6
2022-10-29T05:55:01.738Z,33.2
2022-10-29T06:00:07.572Z,34.3
2022-10-29T06:05:01.388Z,36.0
2022-10-29T06:10:01.208Z,37.2
2022-10-29T06:15:01.633Z,37.0
2022-10-29T06:20:01.251Z,37.2
2022-10-29T06:25:01.212Z,37.4
2022-10-29T06:30:02.565Z,37.9
2022-10-29T06:35:01.234Z,38.4
2022-10-29T06:40:01.316Z,39.0
2022-10-29T06:45:01.637Z,39.6
2022-10-29T06:50:01.250Z,39.4
2022-10-29T06:55:01.236Z,38.5
2022-10-29T07:00:09.662Z,39.0
2022-10-29T07:05:01.348Z,39.0
2022-10-29T07:10:01.243Z,38.4
2022-10-29T07:15:01.679Z,39.0
2022-10-29T07:20:02.681Z,39.9
2022-10-29T07:25:01.677Z,39.2
2022-10-29T07:30:01.713Z,39.0
2022-10-29T07:35:01.258Z,38.5
2022-10-29T07:40:01.745Z,38.2
2022-10-29T07:45:01.656Z,38.1
2022-10-29T07:50:01.623Z,38.1
2022-10-29T07:55:01.022Z,37.3
2022-10-29T08:00:01.497Z,36.7
2022-10-29T08:05:01.114Z,35.8
2022-10-29T08:10:01.115Z,35.2
2022-10-29T08:15:01.637Z,34.6
2022-10-29T08:20:01.107Z,34.5
2022-10-29T08:25:01.756Z,35.2
2022-10-29T08:30:01.510Z,35.0
2022-10-29T08:35:00.895Z,35.0
2022-10-29T08:40:01.340Z,34.4
2022-10-29T08:45:09.892Z,34.8
2022-10-29T08:50:10.264Z,34.1
2022-10-29T09:15:17.019Z,30.0
2022-10-29T09:20:01.096Z,31.0
2022-10-29T09:25:01.186Z,31.7
2022-10-29T09:30:08.668Z,31.5
2022-10-29T09:40:01.345Z,31.2
2022-10-29T09:45:02.684Z,30.8
2022-10-29T09:50:08.742Z,30.1
2022-10-29T09:55:00.967Z,30.2
2022-10-29T10:00:04.726Z,29.4
2022-10-29T10:05:16.891Z,29.8
2022-10-29T10:10:02.876Z,30.2
2022-10-29T10:15:22.044Z,31.0
2022-10-29T10:20:01.259Z,31.3
2022-10-29T10:25:01.716Z,32.0
2022-10-29T10:30:12.052Z,29.6
2022-10-29T10:35:01.345Z,28.8
2022-10-29T10:40:01.517Z,28.0
2022-10-29T10:45:04.689Z,27.2
2022-10-29T10:50:01.234Z,26.2
2022-10-29T11:00:04.583Z,26.4
2022-10-29T11:05:15.244Z,25.9
2022-10-29T11:10:01.176Z,24.9
2022-10-29T11:15:16.899Z,24.3
2022-10-29T11:20:01.169Z,25.3
2022-10-29T11:25:13.469Z,24.7
2022-10-29T11:30:04.443Z,24.6
2022-10-29T11:35:03.718Z,24.7
2022-10-29T11:40:01.202Z,24.1
2022-10-29T11:45:01.695Z,23.3
2022-10-29T11:50:01.250Z,22.8
2022-10-29T11:55:01.384Z,22.4
2022-10-29T12:00:08.678Z,23.2
2022-10-29T12:05:01.430Z,24.0
2022-10-29T12:10:01.314Z,25.2
2022-10-29T12:15:16.797Z,25.8
2022-10-29T12:20:01.504Z,25.7
2022-10-29T12:25:01.451Z,24.2
2022-10-29T12:30:04.246Z,23.5
2022-10-29T12:35:01.339Z,22.4
2022-10-29T12:40:01.282Z,22.4
2022-10-29T12:45:16.983Z,22.4
2022-10-29T12:50:01.152Z,23.3
2022-10-29T12:55:01.172Z,24.1
2022-10-29T13:00:16.767Z,24.2
2022-10-29T13:05:01.039Z,24.1
2022-10-29T13:10:01.012Z,23.8
2022-10-29T13:15:04.899Z,24.3
2022-10-29T13:20:01.017Z,23.9
2022-10-29T13:25:00.980Z,24.5
2022-10-29T13:30:16.312Z,24.2
2022-10-29T13:35:00.923Z,24.3
2022-10-29T13:40:00.842Z,24.1
2022-10-29T13:45:01.345Z,24.4
2022-10-29T13:50:01.056Z,24.4
2022-10-29T13:55:01.316Z,25.2
2022-10-29T14:00:17.200Z,25.8
2022-10-29T14:05:01.288Z,26.6
2022-10-29T14:10:01.379Z,27.4
2022-10-29T14:15:04.829Z,28.3
2022-10-29T14:20:01.306Z,27.8
2022-10-29T14:25:01.308Z,28.4
2022-10-29T14:30:16.636Z,28.1
2022-10-29T14:35:01.383Z,28.0
2022-10-29T14:40:05.886Z,28.2
2022-10-29T14:45:04.163Z,29.1
2022-10-29T14:50:01.700Z,29.6
2022-10-29T14:55:01.240Z,30.0
2022-10-29T15:00:04.825Z,30.4
2022-10-29T15:05:07.882Z,30.1
2022-10-29T15:10:16.605Z,30.0
2022-10-29T15:15:06.910Z,30.0
2022-10-29T15:20:03.736Z,30.9
2022-10-29T15:25:01.321Z,32.0
2022-10-29T15:30:04.562Z,33.4
2022-10-29T15:35:07.972Z,34.4
2022-10-29T15:40:01.562Z,35.5
2022-10-29T15:45:17.614Z,35.4
2022-10-29T15:50:01.488Z,35.0
2022-10-29T15:55:10.228Z,34.9
2022-10-29T16:10:01.419Z,36.7
2022-10-29T16:15:01.846Z,37.7
2022-10-29T16:20:01.317Z,38.2
2022-10-29T16:30:01.821Z,38.6
2022-10-29T16:35:01.323Z,37.6
2022-10-29T16:40:10.784Z,37.8
2022-10-29T16:45:02.503Z,38.1
2022-10-29T16:50:01.399Z,39.0
2022-10-29T16:55:01.311Z,39.9
2022-10-29T17:00:01.909Z,41.1
2022-10-29T17:05:02.222Z,42.0
2022-10-29T17:10:01.412Z,40.6
2022-10-29T17:15:02.376Z,40.6
2022-10-29T17:20:03.514Z,39.7
2022-10-29T17:25:01.295Z,39.3
2022-10-29T17:30:01.987Z,38.5
2022-10-29T17:35:01.775Z,41.2
2022-10-29T17:40:08.368Z,42.4
2022-10-29T17:45:02.195Z,43.3
2022-10-29T17:50:01.334Z,43.8
2022-10-29T17:55:01.776Z,43.9
2022-10-29T18:00:01.874Z,43.2
2022-10-29T18:05:01.308Z,42.2
2022-10-29T18:10:01.341Z,41.3
2022-10-29T18:15:01.891Z,40.6
2022-10-29T18:20:01.300Z,40.2
2022-10-29T18:25:01.312Z,39.8
2022-10-29T18:30:02.518Z,40.0
2022-10-29T18:35:01.299Z,40.4
2022-10-29T18:40:01.350Z,40.7
2022-10-29T18:45:01.721Z,41.4
2022-10-29T18:50:01.618Z,41.8
2022-10-29T18:55:01.580Z,41.8
2022-10-29T19:00:02.915Z,41.7
2022-10-29T19:05:01.301Z,42.9
2022-10-29T19:10:01.880Z,44.7
2022-10-29T19:15:01.856Z,46.5
2022-10-29T19:20:01.302Z,47.2
2022-10-29T19:25:01.303Z,47.7
2022-10-29T19:30:01.861Z,46.7
2022-10-29T19:35:01.307Z,45.8
2022-10-29T19:40:01.307Z,44.3
2022-10-29T19:45:01.808Z,43.5
2022-10-29T19:55:02.472Z,43.6
2022-10-29T20:00:01.941Z,43.0
2022-10-29T20:05:01.009Z,43.1
2022-10-29T20:15:01.813Z,42.6
2022-10-29T20:30:02.009Z,41.5
2022-10-29T20:35:01.481Z,41.2
2022-10-29T20:40:01.333Z,41.6
2022-10-29T20:45:01.845Z,43.8
2022-10-29T20:50:01.320Z,45.7
2022-10-29T20:55:02.053Z,49.4
2022-10-29T21:00:02.647Z,51.6
2022-10-29T21:05:01.770Z,52.0
2022-10-29T21:10:01.338Z,50.3
2022-10-29T21:15:01.871Z,48.7
2022-10-29T21:20:01.325Z,45.9
2022-10-29T21:25:01.351Z,44.0
2022-10-29T21:30:02.027Z,43.9
2022-10-29T21:35:01.463Z,43.9
2022-10-29T21:40:07.688Z,43.9
2022-10-29T21:45:01.838Z,43.9
2022-10-29T21:50:01.356Z,44.4
2022-10-29T21:55:01.360Z,44.1
2022-10-29T22:00:04.132Z,44.0
2022-10-29T22:05:01.327Z,44.0
2022-10-29T22:10:01.343Z,43.8
2022-10-29T22:15:02.108Z,43.9
2022-10-29T22:20:01.745Z,44.2
2022-10-29T22:30:03.079Z,44.2
2022-10-29T22:35:01.359Z,44.2
2022-10-29T22:40:01.351Z,43.5
2022-10-29T22:45:02.406Z,43.2
2022-10-29T22:50:01.363Z,42.9
2022-10-29T22:55:01.431Z,42.9
2022-10-29T23:00:01.933Z,42.5
2022-10-29T23:05:01.343Z,41.4
2022-10-29T23:10:01.563Z,40.9
2022-10-29T23:15:02.172Z,40.7
2022-10-29T23:25:01.338Z,40.8
2022-10-29T23:30:01.838Z,42.2
2022-10-29T23:35:01.365Z,43.2
2022-10-29T23:45:08.718Z,42.9
2022-10-29T23:50:01.367Z,42.7
2022-10-29T23:55:01.400Z,43.5
